sensor_id;sensor_type;location;lat;lon;timestamp;pressure;altitude;pressure_sealevel;temperature;humidity
11676;BME280;5894;42.768;23.404;2023-09-19T00:02:05;95997.16;;;18.89;100.00
11676;BME280;5894;42.768;23.404;2023-09-19T00:04:33;96030.81;;;19.05;100.00
11676;BME280;5894;42.768;23.404;2023-09-19T00:07:01;96033.03;;;19.03;100.00
11676;BME280;5894;42.768;23.404;2023-09-19T00:09:28;96036.75;;;18.99;100.00
11676;BME280;5894;42.768;23.404;2023-09-19T00:11:55;96042.09;;;18.99;100.00
11676;BME280;5894;42.768;23.404;2023-09-19T00:14:24;96037.53;;;18.99;100.00
11676;BME280;5894;42.768;23.404;2023-09-19T00:16:53;96041.38;;;19.02;100.00
11676;BME280;5894;42.768;23.404;2023-09-19T00:19:20;96036.75;;;18.99;100.00
11676;BME280;5894;42.768;23.404;2023-09-19T00:21:48;96024.13;;;18.84;100.00
11676;BME280;5894;42.768;23.404;2023-09-19T00:24:16;96031.75;;;18.97;100.00
11676;BME280;5894;42.768;23.404;2023-09-19T00:26:44;96026.41;;;18.97;100.00
11676;BME280;5894;42.768;23.404;2023-09-19T00:29:12;96021.41;;;18.96;100.00
11676;BME280;5894;42.768;23.404;2023-09-19T00:31:43;96033.09;;;18.91;100.00
11676;BME280;5894;42.768;23.404;2023-09-19T00:34:11;96025.53;;;18.93;100.00
11676;BME280;5894;42.768;23.404;2023-09-19T00:36:38;96026.63;;;18.92;100.00
11676;BME280;5894;42.768;23.404;2023-09-19T00:39:06;96021.28;;;18.92;100.00
11676;BME280;5894;42.768;23.404;2023-09-19T00:41:34;96021.28;;;18.92;100.00
11676;BME280;5894;42.768;23.404;2023-09-19T00:44:01;96017.00;;;18.88;100.00
11676;BME280;5894;42.768;23.404;2023-09-19T00:46:29;96012.56;;;18.80;100.00
11676;BME280;5894;42.768;23.404;2023-09-19T00:48:58;96001.69;;;18.73;100.00
11676;BME280;5894;42.768;23.404;2023-09-19T00:51:26;96004.03;;;18.74;100.00
11676;BME280;5894;42.768;23.404;2023-09-19T00:53:54;95992.28;;;18.63;100.00
11676;BME280;5894;42.768;23.404;2023-09-19T00:56:21;96000.88;;;18.56;100.00
11676;BME280;5894;42.768;23.404;2023-09-19T00:58:48;95998.53;;;18.55;100.00
11676;BME280;5894;42.768;23.404;2023-09-19T01:01:16;96003.09;;;18.54;100.00
11676;BME280;5894;42.768;23.404;2023-09-19T01:03:44;96010.66;;;18.52;100.00
11676;BME280;5894;42.768;23.404;2023-09-19T01:06:12;96009.78;;;18.48;100.00
11676;BME280;5894;42.768;23.404;2023-09-19T01:08:41;96016.47;;;18.54;100.00
11676;BME280;5894;42.768;23.404;2023-09-19T01:11:13;96017.25;;;18.55;100.00
11676;BME280;5894;42.768;23.404;2023-09-19T01:13:48;96013.44;;;18.56;100.00
11676;BME280;5894;42.768;23.404;2023-09-19T01:16:32;96012.34;;;18.57;100.00
11676;BME280;5894;42.768;23.404;2023-09-19T01:19:15;96009.56;;;18.53;100.00
11676;BME280;5894;42.768;23.404;2023-09-19T01:22:07;96005.16;;;18.45;100.00
11676;BME280;5894;42.768;23.404;2023-09-19T01:25:07;96010.50;;;18.45;100.00
11676;BME280;5894;42.768;23.404;2023-09-19T01:27:58;96010.03;;;18.43;100.00
11676;BME280;5894;42.768;23.404;2023-09-19T01:30:33;96015.06;;;18.45;100.00
11676;BME280;5894;42.768;23.404;2023-09-19T01:33:03;96011.16;;;18.42;100.00
11676;BME280;5894;42.768;23.404;2023-09-19T01:35:31;96014.63;;;18.43;100.00
11676;BME280;5894;42.768;23.404;2023-09-19T01:37:59;95978.34;;;18.14;100.00
11676;BME280;5894;42.768;23.404;2023-09-19T01:40:26;95999.41;;;18.31;100.00
11676;BME280;5894;42.768;23.404;2023-09-19T01:42:57;96006.75;;;18.34;100.00
11676;BME280;5894;42.768;23.404;2023-09-19T01:45:37;96010.63;;;18.37;100.00
11676;BME280;5894;42.768;23.404;2023-09-19T01:48:19;96007.59;;;18.38;100.00
11676;BME280;5894;42.768;23.404;2023-09-19T01:50:55;96001.06;;;18.36;100.00
11676;BME280;5894;42.768;23.404;2023-09-19T01:53:27;95996.41;;;18.32;100.00
11676;BME280;5894;42.768;23.404;2023-09-19T01:55:57;95997.53;;;18.31;100.00
11676;BME280;5894;42.768;23.404;2023-09-19T01:58:29;96003.97;;;18.30;100.00
11676;BME280;5894;42.768;23.404;2023-09-19T02:01:01;96025.66;;;18.29;100.00
11676;BME280;5894;42.768;23.404;2023-09-19T02:03:31;96018.88;;;18.31;100.00
11676;BME280;5894;42.768;23.404;2023-09-19T02:06:00;96023.00;;;18.29;100.00
11676;BME280;5894;42.768;23.404;2023-09-19T02:08:30;96029.44;;;18.28;100.00
11676;BME280;5894;42.768;23.404;2023-09-19T02:10:59;96023.69;;;18.26;100.00
11676;BME280;5894;42.768;23.404;2023-09-19T02:13:26;96023.59;;;18.22;100.00
11676;BME280;5894;42.768;23.404;2023-09-19T02:15:53;96021.25;;;18.21;100.00
11676;BME280;5894;42.768;23.404;2023-09-19T02:18:23;96012.38;;;18.17;100.00
11676;BME280;5894;42.768;23.404;2023-09-19T02:20:50;96011.59;;;18.16;100.00
11676;BME280;5894;42.768;23.404;2023-09-19T02:23:18;96013.50;;;18.16;100.00
11676;BME280;5894;42.768;23.404;2023-09-19T02:25:52;96010.38;;;18.14;100.00
11676;BME280;5894;42.768;23.404;2023-09-19T02:28:20;96009.59;;;18.13;100.00
11676;BME280;5894;42.768;23.404;2023-09-19T02:30:48;96010.38;;;18.14;100.00
11676;BME280;5894;42.768;23.404;2023-09-19T02:33:16;95997.50;;;18.04;100.00
11676;BME280;5894;42.768;23.404;2023-09-19T02:35:46;96003.47;;;18.13;100.00
11676;BME280;5894;42.768;23.404;2023-09-19T02:38:13;95991.13;;;18.08;100.00
11676;BME280;5894;42.768;23.404;2023-09-19T02:40:43;95989.50;;;18.04;100.00
11676;BME280;5894;42.768;23.404;2023-09-19T02:43:11;95991.06;;;18.05;100.00
11676;BME280;5894;42.768;23.404;2023-09-19T02:45:38;95986.06;;;18.03;100.00
11676;BME280;5894;42.768;23.404;2023-09-19T02:48:05;95963.19;;;17.90;100.00
11676;BME280;5894;42.768;23.404;2023-09-19T02:50:34;95980.28;;;18.01;100.00
11676;BME280;5894;42.768;23.404;2023-09-19T02:53:03;95976.81;;;18.01;100.00
11676;BME280;5894;42.768;23.404;2023-09-19T02:55:30;95977.84;;;17.96;100.00
11676;BME280;5894;42.768;23.404;2023-09-19T02:57:57;95976.72;;;17.97;100.00
11676;BME280;5894;42.768;23.404;2023-09-19T03:00:24;95976.72;;;17.97;100.00
11676;BME280;5894;42.768;23.404;2023-09-19T03:02:54;95969.41;;;17.94;100.00
11676;BME280;5894;42.768;23.404;2023-09-19T03:05:22;95974.63;;;17.90;100.00
11676;BME280;5894;42.768;23.404;2023-09-19T03:07:51;95981.41;;;17.88;100.00
11676;BME280;5894;42.768;23.404;2023-09-19T03:10:21;95987.19;;;17.90;100.00
11676;BME280;5894;42.768;23.404;2023-09-19T03:12:51;95980.22;;;17.85;100.00
11676;BME280;5894;42.768;23.404;2023-09-19T03:15:18;95972.44;;;17.80;100.00
11676;BME280;5894;42.768;23.404;2023-09-19T03:17:49;95966.19;;;17.76;100.00
11676;BME280;5894;42.768;23.404;2023-09-19T03:20:20;95965.09;;;17.77;100.00
11676;BME280;5894;42.768;23.404;2023-09-19T03:22:49;95957.78;;;17.74;100.00
11676;BME280;5894;42.768;23.404;2023-09-19T03:25:16;95956.56;;;17.72;100.00
11676;BME280;5894;42.768;23.404;2023-09-19T03:27:49;95950.00;;;17.69;100.00
11676;BME280;5894;42.768;23.404;2023-09-19T03:30:16;95946.44;;;17.65;100.00
11676;BME280;5894;42.768;23.404;2023-09-19T03:32:45;95948.34;;;17.65;100.00
11676;BME280;5894;42.768;23.404;2023-09-19T03:35:15;95958.25;;;17.64;100.00
11676;BME280;5894;42.768;23.404;2023-09-19T03:37:43;95963.09;;;17.62;100.00
11676;BME280;5894;42.768;23.404;2023-09-19T03:40:11;95971.44;;;17.60;100.00
11676;BME280;5894;42.768;23.404;2023-09-19T03:42:38;95972.56;;;17.59;100.00
11676;BME280;5894;42.768;23.404;2023-09-19T03:45:09;95959.56;;;17.46;100.00
11676;BME280;5894;42.768;23.404;2023-09-19T03:47:39;95977.75;;;17.56;100.00
11676;BME280;5894;42.768;23.404;2023-09-19T03:50:09;95967.69;;;17.49;100.00
11676;BME280;5894;42.768;23.404;2023-09-19T03:52:37;95976.22;;;17.55;100.00
11676;BME280;5894;42.768;23.404;2023-09-19T03:55:04;95977.34;;;17.54;100.00
11676;BME280;5894;42.768;23.404;2023-09-19T03:57:36;95982.69;;;17.54;100.00
11676;BME280;5894;42.768;23.404;2023-09-19T04:00:04;95984.91;;;17.52;100.00
11676;BME280;5894;42.768;23.404;2023-09-19T04:02:40;95989.78;;;17.50;100.00
11676;BME280;5894;42.768;23.404;2023-09-19T04:05:07;95993.88;;;17.47;100.00
11676;BME280;5894;42.768;23.404;2023-09-19T04:07:35;95990.34;;;17.43;100.00
11676;BME280;5894;42.768;23.404;2023-09-19T04:10:02;95987.78;;;17.35;100.00
11676;BME280;5894;42.768;23.404;2023-09-19T04:12:30;95990.91;;;17.37;100.00
11676;BME280;5894;42.768;23.404;2023-09-19T04:14:58;95995.13;;;17.38;100.00
11676;BME280;5894;42.768;23.404;2023-09-19T04:17:25;95998.81;;;17.33;100.00
11676;BME280;5894;42.768;23.404;2023-09-19T04:19:53;96000.22;;;17.31;100.00
11676;BME280;5894;42.768;23.404;2023-09-19T04:22:20;96002.31;;;17.25;100.00
11676;BME280;5894;42.768;23.404;2023-09-19T04:24:47;95996.56;;;17.23;100.00
11676;BME280;5894;42.768;23.404;2023-09-19T04:27:15;95997.31;;;17.23;100.00
11676;BME280;5894;42.768;23.404;2023-09-19T04:29:42;95992.00;;;17.23;100.00
11676;BME280;5894;42.768;23.404;2023-09-19T04:32:09;95999.56;;;17.21;100.00
11676;BME280;5894;42.768;23.404;2023-09-19T04:34:36;95993.13;;;17.22;100.00
11676;BME280;5894;42.768;23.404;2023-09-19T04:37:05;95998.47;;;17.22;100.00
11676;BME280;5894;42.768;23.404;2023-09-19T04:39:32;95997.44;;;17.27;100.00
11676;BME280;5894;42.768;23.404;2023-09-19T04:41:59;95994.34;;;17.25;100.00
11676;BME280;5894;42.768;23.404;2023-09-19T04:44:26;95992.34;;;17.22;100.00
11676;BME280;5894;42.768;23.404;2023-09-19T04:46:53;95990.47;;;17.22;100.00
11676;BME280;5894;42.768;23.404;2023-09-19T04:49:21;95986.13;;;17.18;100.00
11676;BME280;5894;42.768;23.404;2023-09-19T04:51:48;95985.66;;;17.16;100.00
11676;BME280;5894;42.768;23.404;2023-09-19T04:54:16;95983.00;;;17.16;100.00
11676;BME280;5894;42.768;23.404;2023-09-19T04:56:43;95981.91;;;17.17;100.00
11676;BME280;5894;42.768;23.404;2023-09-19T04:59:10;95987.22;;;17.17;100.00
11676;BME280;5894;42.768;23.404;2023-09-19T05:01:37;95989.13;;;17.16;100.00
11676;BME280;5894;42.768;23.404;2023-09-19T05:04:04;95985.47;;;17.21;100.00
11676;BME280;5894;42.768;23.404;2023-09-19T05:06:31;95976.38;;;17.22;100.00
11676;BME280;5894;42.768;23.404;2023-09-19T05:09:01;95981.34;;;17.23;100.00
11676;BME280;5894;42.768;23.404;2023-09-19T05:11:32;95978.00;;;17.27;100.00
11676;BME280;5894;42.768;23.404;2023-09-19T05:13:59;95986.91;;;17.31;100.00
11676;BME280;5894;42.768;23.404;2023-09-19T05:16:29;95980.22;;;17.37;100.00
11676;BME280;5894;42.768;23.404;2023-09-19T05:18:57;95975.47;;;17.42;100.00
11676;BME280;5894;42.768;23.404;2023-09-19T05:21:25;95981.66;;;17.46;100.00
11676;BME280;5894;42.768;23.404;2023-09-19T05:23:54;95979.13;;;17.50;100.00
11676;BME280;5894;42.768;23.404;2023-09-19T05:26:21;95981.53;;;17.55;100.00
11676;BME280;5894;42.768;23.404;2023-09-19T05:28:51;95978.34;;;17.61;100.00
11676;BME280;5894;42.768;23.404;2023-09-19T05:31:18;95980.00;;;17.66;100.00
11676;BME280;5894;42.768;23.404;2023-09-19T05:33:46;95975.56;;;17.70;100.00
11676;BME280;5894;42.768;23.404;2023-09-19T05:36:12;95970.34;;;17.74;100.00
11676;BME280;5894;42.768;23.404;2023-09-19T05:38:42;95963.97;;;17.78;100.00
11676;BME280;5894;42.768;23.404;2023-09-19T05:41:10;95962.66;;;17.84;100.00
11676;BME280;5894;42.768;23.404;2023-09-19T05:43:39;95965.75;;;17.86;100.00
11676;BME280;5894;42.768;23.404;2023-09-19T05:46:08;95954.50;;;17.93;100.00
11676;BME280;5894;42.768;23.404;2023-09-19T05:48:35;95961.94;;;18.00;100.00
11676;BME280;5894;42.768;23.404;2023-09-19T05:51:02;95952.47;;;18.02;100.00
11676;BME280;5894;42.768;23.404;2023-09-19T05:53:29;95957.66;;;18.11;100.00
11676;BME280;5894;42.768;23.404;2023-09-19T05:55:56;95954.31;;;18.14;100.00
11676;BME280;5894;42.768;23.404;2023-09-19T05:58:26;95952.50;;;18.18;100.00
11676;BME280;5894;42.768;23.404;2023-09-19T06:00:54;95960.41;;;18.26;100.00
11676;BME280;5894;42.768;23.404;2023-09-19T06:03:23;95952.13;;;18.31;100.00
11676;BME280;5894;42.768;23.404;2023-09-19T06:05:50;95957.25;;;18.37;100.00
11676;BME280;5894;42.768;23.404;2023-09-19T06:08:19;95953.19;;;18.43;100.00
11676;BME280;5894;42.768;23.404;2023-09-19T06:10:46;95945.34;;;18.50;100.00
11676;BME280;5894;42.768;23.404;2023-09-19T06:13:14;95948.22;;;18.57;100.00
11676;BME280;5894;42.768;23.404;2023-09-19T06:15:41;95949.22;;;18.64;100.00
11676;BME280;5894;42.768;23.404;2023-09-19T06:18:11;95922.19;;;18.54;100.00
11676;BME280;5894;42.768;23.404;2023-09-19T06:20:42;95937.59;;;18.73;100.00
11676;BME280;5894;42.768;23.404;2023-09-19T06:23:10;95934.72;;;18.81;100.00
11676;BME280;5894;42.768;23.404;2023-09-19T06:25:37;95944.50;;;18.89;100.00
11676;BME280;5894;42.768;23.404;2023-09-19T06:28:05;95939.31;;;18.96;100.00
11676;BME280;5894;42.768;23.404;2023-09-19T06:30:34;95941.47;;;19.06;100.00
11676;BME280;5894;42.768;23.404;2023-09-19T06:33:01;95936.13;;;19.06;100.00
11676;BME280;5894;42.768;23.404;2023-09-19T06:35:32;95931.91;;;19.05;100.00
11676;BME280;5894;42.768;23.404;2023-09-19T06:38:02;95937.34;;;19.09;100.00
11676;BME280;5894;42.768;23.404;2023-09-19T06:40:29;95935.44;;;19.10;100.00
11676;BME280;5894;42.768;23.404;2023-09-19T06:42:56;95940.94;;;19.17;100.00
11676;BME280;5894;42.768;23.404;2023-09-19T06:45:23;95936.53;;;19.24;100.00
11676;BME280;5894;42.768;23.404;2023-09-19T06:47:52;95898.09;;;18.97;100.00
11676;BME280;5894;42.768;23.404;2023-09-19T06:50:23;95945.13;;;19.33;100.00
11676;BME280;5894;42.768;23.404;2023-09-19T06:52:53;95946.50;;;19.43;100.00
11676;BME280;5894;42.768;23.404;2023-09-19T06:55:22;95947.81;;;19.49;100.00
11676;BME280;5894;42.768;23.404;2023-09-19T06:57:50;95947.97;;;19.56;100.00
11676;BME280;5894;42.768;23.404;2023-09-19T07:00:19;95955.22;;;19.56;100.00
11676;BME280;5894;42.768;23.404;2023-09-19T07:02:55;95957.06;;;19.52;100.00
11676;BME280;5894;42.768;23.404;2023-09-19T07:05:23;95962.38;;;19.67;100.00
11676;BME280;5894;42.768;23.404;2023-09-19T07:07:50;95964.91;;;19.79;100.00
11676;BME280;5894;42.768;23.404;2023-09-19T07:10:17;95959.00;;;19.90;100.00
11676;BME280;5894;42.768;23.404;2023-09-19T07:12:47;95960.38;;;19.99;100.00
11676;BME280;5894;42.768;23.404;2023-09-19T07:15:14;95961.28;;;20.07;100.00
11676;BME280;5894;42.768;23.404;2023-09-19T07:17:41;95956.78;;;20.11;100.00
11676;BME280;5894;42.768;23.404;2023-09-19T07:20:09;95958.47;;;20.19;99.67
11676;BME280;5894;42.768;23.404;2023-09-19T07:22:36;95878.28;;;19.68;98.09
11676;BME280;5894;42.768;23.404;2023-09-19T07:25:05;95952.69;;;20.17;97.26
11676;BME280;5894;42.768;23.404;2023-09-19T07:27:33;95952.88;;;20.28;97.54
11676;BME280;5894;42.768;23.404;2023-09-19T07:30:02;95945.69;;;20.32;97.24
11676;BME280;5894;42.768;23.404;2023-09-19T07:32:29;95941.63;;;20.38;97.99
11676;BME280;5894;42.768;23.404;2023-09-19T07:34:56;95926.94;;;20.32;98.04
11676;BME280;5894;42.768;23.404;2023-09-19T07:37:23;95900.41;;;20.23;97.93
11676;BME280;5894;42.768;23.404;2023-09-19T07:39:51;95954.63;;;20.59;97.60
11676;BME280;5894;42.768;23.404;2023-09-19T07:42:18;95952.38;;;20.61;96.38
11676;BME280;5894;42.768;23.404;2023-09-19T07:44:46;95953.63;;;20.67;95.86
11676;BME280;5894;42.768;23.404;2023-09-19T07:47:17;95961.47;;;20.75;95.91
11676;BME280;5894;42.768;23.404;2023-09-19T07:49:46;95948.53;;;20.81;95.18
11676;BME280;5894;42.768;23.404;2023-09-19T07:52:13;95958.19;;;20.85;94.85
11676;BME280;5894;42.768;23.404;2023-09-19T07:54:41;95958.97;;;20.86;94.95
11676;BME280;5894;42.768;23.404;2023-09-19T07:57:09;95958.28;;;20.93;94.89
11676;BME280;5894;42.768;23.404;2023-09-19T07:59:37;95967.94;;;20.97;94.86
11676;BME280;5894;42.768;23.404;2023-09-19T08:02:05;95952.22;;;20.96;94.96
11676;BME280;5894;42.768;23.404;2023-09-19T08:04:35;95958.13;;;21.05;94.79
11676;BME280;5894;42.768;23.404;2023-09-19T08:07:02;95956.63;;;21.07;94.78
11676;BME280;5894;42.768;23.404;2023-09-19T08:09:31;95954.41;;;21.13;94.57
11676;BME280;5894;42.768;23.404;2023-09-19T08:11:59;95950.66;;;21.17;93.76
11676;BME280;5894;42.768;23.404;2023-09-19T08:14:29;95949.97;;;21.20;94.77
11676;BME280;5894;42.768;23.404;2023-09-19T08:16:57;95942.34;;;21.22;94.46
11676;BME280;5894;42.768;23.404;2023-09-19T08:19:26;95926.59;;;21.21;93.67
11676;BME280;5894;42.768;23.404;2023-09-19T08:21:56;95868.59;;;20.86;93.79
11676;BME280;5894;42.768;23.404;2023-09-19T08:24:25;95935.66;;;21.39;92.86
11676;BME280;5894;42.768;23.404;2023-09-19T08:26:54;95937.63;;;21.42;92.40
11676;BME280;5894;42.768;23.404;2023-09-19T08:29:21;95927.75;;;21.46;92.64
11676;BME280;5894;42.768;23.404;2023-09-19T08:31:54;95917.47;;;21.52;92.85
11676;BME280;5894;42.768;23.404;2023-09-19T08:34:22;95870.84;;;21.11;91.68
11676;BME280;5894;42.768;23.404;2023-09-19T08:36:50;95933.28;;;21.60;92.16
11676;BME280;5894;42.768;23.404;2023-09-19T08:39:19;95942.19;;;21.65;92.59
11676;BME280;5894;42.768;23.404;2023-09-19T08:41:46;95935.72;;;21.69;92.02
11676;BME280;5894;42.768;23.404;2023-09-19T08:44:13;95934.91;;;21.65;92.50
11676;BME280;5894;42.768;23.404;2023-09-19T08:46:41;95931.44;;;21.65;91.49
11676;BME280;5894;42.768;23.404;2023-09-19T08:49:15;95926.50;;;21.67;91.35
11676;BME280;5894;42.768;23.404;2023-09-19T08:51:51;95930.03;;;21.74;90.26
11676;BME280;5894;42.768;23.404;2023-09-19T08:54:25;95928.53;;;21.77;90.02
11676;BME280;5894;42.768;23.404;2023-09-19T08:56:54;95932.44;;;21.83;90.68
11676;BME280;5894;42.768;23.404;2023-09-19T08:59:22;95922.91;;;21.85;89.74
11676;BME280;5894;42.768;23.404;2023-09-19T09:01:53;95921.03;;;21.89;90.92
11676;BME280;5894;42.768;23.404;2023-09-19T09:04:22;95871.34;;;21.73;90.71
11676;BME280;5894;42.768;23.404;2023-09-19T09:06:49;95911.47;;;21.92;90.22
11676;BME280;5894;42.768;23.404;2023-09-19T09:09:19;95886.72;;;21.76;90.54
11676;BME280;5894;42.768;23.404;2023-09-19T09:11:49;95916.97;;;21.99;89.99
11676;BME280;5894;42.768;23.404;2023-09-19T09:14:19;95908.63;;;22.08;93.16
11676;BME280;5894;42.768;23.404;2023-09-19T09:16:47;95911.38;;;22.15;90.87
11676;BME280;5894;42.768;23.404;2023-09-19T09:19:15;95904.56;;;22.21;88.50
11676;BME280;5894;42.768;23.404;2023-09-19T09:21:49;95905.34;;;22.25;89.66
11676;BME280;5894;42.768;23.404;2023-09-19T09:24:26;95908.84;;;22.29;88.90
11676;BME280;5894;42.768;23.404;2023-09-19T09:26:56;95899.34;;;22.39;90.48
11676;BME280;5894;42.768;23.404;2023-09-19T09:29:44;95894.09;;;22.49;89.74
11676;BME280;5894;42.768;23.404;2023-09-19T09:32:19;95892.19;;;22.53;86.70
11676;BME280;5894;42.768;23.404;2023-09-19T09:34:49;95896.16;;;22.66;86.49
11676;BME280;5894;42.768;23.404;2023-09-19T09:37:17;95888.91;;;22.70;85.86
11676;BME280;5894;42.768;23.404;2023-09-19T09:39:52;95888.63;;;22.79;85.99
11676;BME280;5894;42.768;23.404;2023-09-19T09:42:34;95881.78;;;22.89;86.52
11676;BME280;5894;42.768;23.404;2023-09-19T09:45:15;95843.66;;;22.76;84.31
11676;BME280;5894;42.768;23.404;2023-09-19T09:47:47;95871.16;;;23.03;83.37
11676;BME280;5894;42.768;23.404;2023-09-19T09:50:29;95875.06;;;23.13;84.71
11676;BME280;5894;42.768;23.404;2023-09-19T09:53:19;95858.84;;;23.02;82.57
11676;BME280;5894;42.768;23.404;2023-09-19T09:56:03;95872.00;;;23.18;82.98
11676;BME280;5894;42.768;23.404;2023-09-19T09:58:37;95870.13;;;23.22;82.69
11676;BME280;5894;42.768;23.404;2023-09-19T10:01:06;95871.69;;;23.30;82.54
11676;BME280;5894;42.768;23.404;2023-09-19T10:03:37;95869.03;;;23.33;82.31
11676;BME280;5894;42.768;23.404;2023-09-19T10:06:11;95875.19;;;23.37;79.64
11676;BME280;5894;42.768;23.404;2023-09-19T10:09:01;95865.25;;;23.45;81.11
11676;BME280;5894;42.768;23.404;2023-09-19T10:11:43;95865.69;;;23.51;80.35
11676;BME280;5894;42.768;23.404;2023-09-19T10:14:13;95864.94;;;23.54;80.23
11676;BME280;5894;42.768;23.404;2023-09-19T10:16:45;95864.22;;;23.64;79.36
11676;BME280;5894;42.768;23.404;2023-09-19T10:19:16;95858.09;;;23.67;79.66
11676;BME280;5894;42.768;23.404;2023-09-19T10:21:50;95843.41;;;23.57;81.00
11676;BME280;5894;42.768;23.404;2023-09-19T10:24:22;95856.59;;;23.76;79.29
11676;BME280;5894;42.768;23.404;2023-09-19T10:26:50;95860.06;;;23.84;78.50
11676;BME280;5894;42.768;23.404;2023-09-19T10:29:20;95855.84;;;23.90;77.67
11676;BME280;5894;42.768;23.404;2023-09-19T10:31:48;95850.84;;;23.89;78.71
11676;BME280;5894;42.768;23.404;2023-09-19T10:34:17;95853.56;;;23.92;79.17
11676;BME280;5894;42.768;23.404;2023-09-19T10:36:46;95847.03;;;23.97;79.87
11676;BME280;5894;42.768;23.404;2023-09-19T10:39:15;95842.44;;;24.04;79.06
11676;BME280;5894;42.768;23.404;2023-09-19T10:41:50;95832.81;;;24.07;80.25
11676;BME280;5894;42.768;23.404;2023-09-19T10:44:24;95835.13;;;24.12;79.80
11676;BME280;5894;42.768;23.404;2023-09-19T10:46:52;95833.63;;;24.18;80.35
11676;BME280;5894;42.768;23.404;2023-09-19T10:49:20;95835.22;;;24.26;80.31
11676;BME280;5894;42.768;23.404;2023-09-19T10:51:49;95799.72;;;24.10;76.19
11676;BME280;5894;42.768;23.404;2023-09-19T10:54:21;95827.50;;;24.28;76.81
11676;BME280;5894;42.768;23.404;2023-09-19T10:56:52;95827.50;;;24.35;79.63
11676;BME280;5894;42.768;23.404;2023-09-19T10:59:25;95825.59;;;24.43;78.09
11676;BME280;5894;42.768;23.404;2023-09-19T11:02:15;95817.91;;;24.48;76.11
11676;BME280;5894;42.768;23.404;2023-09-19T11:04:43;95814.41;;;24.51;75.69
11676;BME280;5894;42.768;23.404;2023-09-19T11:07:14;95827.13;;;24.55;77.47
11676;BME280;5894;42.768;23.404;2023-09-19T11:09:48;95819.06;;;24.69;78.46
11676;BME280;5894;42.768;23.404;2023-09-19T11:12:51;95808.63;;;24.81;80.34
11676;BME280;5894;42.768;23.404;2023-09-19T11:18:55;95802.88;;;24.97;74.68
11676;BME280;5894;42.768;23.404;2023-09-19T11:21:52;95802.50;;;24.99;74.29
11676;BME280;5894;42.768;23.404;2023-09-19T11:24:31;95806.31;;;25.08;75.03
11676;BME280;5894;42.768;23.404;2023-09-19T11:27:13;95804.00;;;25.17;75.61
11676;BME280;5894;42.768;23.404;2023-09-19T11:29:42;95802.03;;;25.25;74.73
11676;BME280;5894;42.768;23.404;2023-09-19T11:32:09;95807.41;;;25.36;74.93
11676;BME280;5894;42.768;23.404;2023-09-19T11:34:45;95796.59;;;25.43;72.43
11676;BME280;5894;42.768;23.404;2023-09-19T11:40:32;95783.13;;;25.29;68.58
11676;BME280;5894;42.768;23.404;2023-09-19T11:43:32;95772.34;;;25.32;70.11
11676;BME280;5894;42.768;23.404;2023-09-19T11:46:07;95764.97;;;25.40;72.03
11676;BME280;5894;42.768;23.404;2023-09-19T11:48:40;95763.00;;;25.44;70.94
11676;BME280;5894;42.768;23.404;2023-09-19T11:51:13;95761.84;;;25.48;69.10
11676;BME280;5894;42.768;23.404;2023-09-19T11:53:48;95753.38;;;25.50;69.77
11676;BME280;5894;42.768;23.404;2023-09-19T11:56:16;95732.19;;;25.34;69.39
11676;BME280;5894;42.768;23.404;2023-09-19T11:58:48;95754.47;;;25.56;67.54
11676;BME280;5894;42.768;23.404;2023-09-19T12:01:21;95760.66;;;25.56;67.28
11676;BME280;5894;42.768;23.404;2023-09-19T12:03:53;95752.19;;;25.62;67.50
11676;BME280;5894;42.768;23.404;2023-09-19T12:06:25;95754.88;;;25.62;66.93
11676;BME280;5894;42.768;23.404;2023-09-19T12:08:52;95744.03;;;25.65;68.82
11676;BME280;5894;42.768;23.404;2023-09-19T12:11:22;95743.22;;;25.75;71.19
11676;BME280;5894;42.768;23.404;2023-09-19T12:13:50;95737.03;;;25.78;69.12
11676;BME280;5894;42.768;23.404;2023-09-19T12:16:20;95729.69;;;25.82;69.40
11676;BME280;5894;42.768;23.404;2023-09-19T12:18:50;95723.47;;;25.89;68.63
11676;BME280;5894;42.768;23.404;2023-09-19T12:21:29;95718.41;;;25.94;68.36
11676;BME280;5894;42.768;23.404;2023-09-19T12:24:07;95723.41;;;26.00;66.40
11676;BME280;5894;42.768;23.404;2023-09-19T12:26:42;95703.78;;;25.88;64.57
11676;BME280;5894;42.768;23.404;2023-09-19T12:29:13;95714.56;;;25.92;64.33
11676;BME280;5894;42.768;23.404;2023-09-19T12:31:51;95712.25;;;25.94;65.78
11676;BME280;5894;42.768;23.404;2023-09-19T12:34:24;95709.16;;;25.95;66.47
11676;BME280;5894;42.768;23.404;2023-09-19T12:37:11;95714.94;;;25.94;66.22
11676;BME280;5894;42.768;23.404;2023-09-19T12:39:43;95682.22;;;25.81;66.34
11676;BME280;5894;42.768;23.404;2023-09-19T12:42:15;95702.97;;;25.95;66.21
11676;BME280;5894;42.768;23.404;2023-09-19T12:44:43;95705.63;;;25.99;65.48
11676;BME280;5894;42.768;23.404;2023-09-19T12:47:12;95671.47;;;25.74;65.14
11676;BME280;5894;42.768;23.404;2023-09-19T12:50:10;95702.53;;;26.00;65.66
11676;BME280;5894;42.768;23.404;2023-09-19T12:52:45;95699.06;;;26.03;65.47
11676;BME280;5894;42.768;23.404;2023-09-19T12:55:23;95695.97;;;26.01;64.75
11676;BME280;5894;42.768;23.404;2023-09-19T12:58:07;95692.13;;;26.02;64.84
11676;BME280;5894;42.768;23.404;2023-09-19T13:00:36;95686.72;;;26.02;64.72
11676;BME280;5894;42.768;23.404;2023-09-19T13:03:12;95687.47;;;26.03;65.09
11676;BME280;5894;42.768;23.404;2023-09-19T13:05:48;95683.22;;;26.05;64.05
11676;BME280;5894;42.768;23.404;2023-09-19T13:08:21;95681.69;;;26.04;63.24
11676;BME280;5894;42.768;23.404;2023-09-19T13:11:07;95670.88;;;26.04;64.56
11676;BME280;5894;42.768;23.404;2023-09-19T13:13:36;95675.06;;;26.09;62.94
11676;BME280;5894;42.768;23.404;2023-09-19T13:16:03;95670.81;;;26.11;61.36
11676;BME280;5894;42.768;23.404;2023-09-19T13:18:42;95660.06;;;26.01;63.85
11676;BME280;5894;42.768;23.404;2023-09-19T13:21:11;95669.66;;;26.09;65.08